Time;durP1;ratioP1;P1;durP2;ratioP2;P2;SDS_P1;SDS_P2;PMS_P1;PMS_P2;Temp;Humidity;BMP_temperature;BMP_pressure;BME280_temperature;BME280_humidity;BME280_pressure;Samples;Min_cycle;Max_cycle;Signal;HPM_P1;HPM_P2
2022/03/14 00:01:09;;;;;;;6.77;6.37;;;11.30;99.90;;;;;;5115276;28;20568;-65
2022/03/14 00:03:47;;;;;;;7.27;6.67;;;11.30;99.90;;;;;;5096143;28;20260;-65
2022/03/14 00:06:14;;;;;;;6.90;6.40;;;11.30;99.90;;;;;;5114916;28;20261;-65
2022/03/14 00:08:41;;;;;;;7.30;6.80;;;11.20;99.90;;;;;;5115018;28;20264;-65
2022/03/14 00:11:07;;;;;;;7.50;7.00;;;11.20;99.90;;;;;;5115266;28;20199;-66
2022/03/14 00:13:33;;;;;;;7.40;7.00;;;11.20;99.90;;;;;;5114689;28;20188;-66
2022/03/14 00:15:59;;;;;;;7.27;6.77;;;11.20;99.90;;;;;;5114607;28;20177;-65
2022/03/14 00:18:27;;;;;;;7.00;6.50;;;11.20;99.90;;;;;;5114867;28;20184;-66
2022/03/14 00:20:53;;;;;;;8.23;7.60;;;11.10;99.90;;;;;;5114709;28;20291;-66
2022/03/14 00:23:19;;;;;;;7.20;6.70;;;11.10;99.90;;;;;;5114874;28;20251;-65
2022/03/14 00:25:44;;;;;;;6.77;6.30;;;11.10;99.90;;;;;;5114276;28;20193;-65
2022/03/14 00:28:12;;;;;;;6.93;6.53;;;11.00;99.90;;;;;;5114066;28;20296;-65
2022/03/14 00:30:37;;;;;;;7.17;6.67;;;11.00;99.90;;;;;;5114447;28;20554;-66
2022/03/14 00:33:03;;;;;;;6.87;6.47;;;11.00;99.90;;;;;;5114947;28;20180;-65
2022/03/14 00:35:29;;;;;;;6.80;6.40;;;11.00;99.90;;;;;;5114224;28;20173;-64
2022/03/14 00:37:54;;;;;;;7.60;7.10;;;10.90;99.90;;;;;;5096503;28;20260;-65
2022/03/14 00:40:20;;;;;;;7.77;7.27;;;11.00;99.90;;;;;;5114515;28;20193;-66
2022/03/14 00:42:48;;;;;;;8.20;7.60;;;11.00;99.90;;;;;;5114243;28;20188;-65
2022/03/14 00:45:14;;;;;;;8.57;7.97;;;10.90;99.90;;;;;;5114088;28;20173;-65
2022/03/14 00:47:40;;;;;;;7.90;7.17;;;10.90;99.90;;;;;;5114254;28;20211;-65
2022/03/14 00:50:07;;;;;;;7.10;6.70;;;10.90;99.90;;;;;;5114447;28;20188;-65
2022/03/14 00:52:33;;;;;;;7.63;7.20;;;10.90;99.90;;;;;;5112525;28;20245;-65
2022/03/14 00:54:58;;;;;;;7.87;7.27;;;10.90;99.90;;;;;;5114068;28;20181;-65
2022/03/14 00:57:24;;;;;;;7.30;6.80;;;10.90;99.90;;;;;;5095656;28;20204;-65
2022/03/14 00:59:50;;;;;;;7.20;6.80;;;10.90;99.90;;;;;;5114276;28;20177;-66
2022/03/14 01:02:16;;;;;;;7.07;6.57;;;10.90;99.90;;;;;;5095413;28;20216;-65
2022/03/14 01:04:42;;;;;;;6.80;6.40;;;10.90;99.90;;;;;;5095980;28;20173;-65
2022/03/14 01:07:07;;;;;;;7.60;6.87;;;10.80;99.90;;;;;;5113693;28;20215;-66
2022/03/14 01:09:33;;;;;;;7.23;6.63;;;10.90;99.90;;;;;;5114051;28;20212;-66
2022/03/14 01:11:59;;;;;;;7.40;6.90;;;10.90;99.90;;;;;;5114219;28;20639;-66
2022/03/14 01:14:25;;;;;;;7.80;7.30;;;10.80;99.90;;;;;;5113471;28;20185;-65
2022/03/14 01:16:52;;;;;;;7.40;7.00;;;10.90;99.90;;;;;;5113954;28;20199;-66
2022/03/14 01:19:19;;;;;;;7.77;7.27;;;10.80;99.90;;;;;;5113691;28;20234;-66
2022/03/14 01:21:45;;;;;;;7.63;7.13;;;10.80;99.90;;;;;;5113893;28;20185;-66
2022/03/14 01:24:11;;;;;;;7.90;7.40;;;10.70;99.90;;;;;;5113639;28;20246;-66
2022/03/14 01:26:37;;;;;;;7.73;7.23;;;10.60;99.90;;;;;;5112517;28;20212;-65
2022/03/14 01:29:03;;;;;;;7.80;7.30;;;10.50;99.90;;;;;;5113488;28;20268;-66
2022/03/14 01:31:30;;;;;;;8.17;7.67;;;10.50;99.90;;;;;;5113745;28;20322;-66
2022/03/14 01:33:55;;;;;;;8.00;7.40;;;10.50;99.90;;;;;;5113448;28;20177;-66
2022/03/14 01:36:21;;;;;;;7.77;7.27;;;10.50;99.90;;;;;;5112982;28;20653;-66
2022/03/14 01:38:46;;;;;;;8.63;8.03;;;10.40;99.90;;;;;;5113622;28;20179;-65
2022/03/14 01:41:16;;;;;;;9.37;8.77;;;10.30;99.90;;;;;;5113065;28;20226;-66
2022/03/14 01:43:43;;;;;;;8.67;8.07;;;10.30;99.90;;;;;;5113238;28;20177;-66
2022/03/14 01:46:08;;;;;;;8.97;8.30;;;10.20;99.90;;;;;;5113098;28;20177;-66
2022/03/14 01:48:34;;;;;;;9.93;9.07;;;10.10;99.90;;;;;;5112930;28;20624;-66
2022/03/14 01:51:00;;;;;;;9.70;8.80;;;10.00;99.90;;;;;;5113250;28;20189;-67
2022/03/14 01:53:29;;;;;;;12.03;10.50;;;10.00;99.90;;;;;;5112887;28;20176;-67
2022/03/14 01:55:55;;;;;;;11.07;9.23;;;9.90;99.90;;;;;;5112925;28;20180;-66
2022/03/14 01:58:21;;;;;;;10.17;9.27;;;9.80;99.90;;;;;;5112634;28;20197;-67
2022/03/14 02:00:47;;;;;;;10.50;9.10;;;9.70;99.90;;;;;;5113121;28;20227;-66
2022/03/14 02:03:13;;;;;;;12.93;9.27;;;9.60;99.90;;;;;;5094046;28;20603;-67
2022/03/14 02:05:38;;;;;;;11.17;9.93;;;9.60;99.90;;;;;;5094554;28;20218;-66
2022/03/14 02:08:07;;;;;;;9.97;9.20;;;9.50;99.90;;;;;;5094511;28;20299;-66
2022/03/14 02:10:34;;;;;;;10.50;9.53;;;9.50;99.90;;;;;;5112862;28;20201;-67
2022/03/14 02:13:08;;;;;;;10.87;9.80;;;9.50;99.90;;;;;;5112623;28;20230;-66
2022/03/14 02:15:34;;;;;;;10.47;9.47;;;9.40;99.90;;;;;;5112544;28;20598;-66
2022/03/14 02:18:00;;;;;;;10.20;9.30;;;9.40;99.90;;;;;;5112582;28;20261;-66
2022/03/14 02:20:26;;;;;;;11.67;10.67;;;9.40;99.90;;;;;;5112464;28;20188;-67
2022/03/14 02:22:52;;;;;;;10.10;9.20;;;9.40;99.90;;;;;;5112484;28;20169;-66
2022/03/14 02:25:17;;;;;;;12.43;11.53;;;9.40;99.90;;;;;;5112275;28;20180;-67
2022/03/14 02:27:43;;;;;;;11.17;10.17;;;9.30;99.90;;;;;;5111526;28;20223;-66
2022/03/14 02:30:09;;;;;;;13.17;12.07;;;9.40;99.90;;;;;;5094299;28;20193;-66
2022/03/14 02:32:39;;;;;;;13.00;12.00;;;9.40;99.90;;;;;;5093872;28;20238;-67
2022/03/14 02:35:05;;;;;;;11.57;10.67;;;9.40;99.90;;;;;;5091717;28;20176;-67
2022/03/14 02:37:31;;;;;;;12.70;11.77;;;9.40;99.90;;;;;;5092488;28;20197;-67
2022/03/14 02:39:56;;;;;;;11.40;10.30;;;9.30;99.90;;;;;;5093866;28;20673;-67
2022/03/14 02:42:22;;;;;;;11.80;10.80;;;9.30;99.90;;;;;;5112020;28;20203;-65
2022/03/14 02:44:48;;;;;;;12.63;11.67;;;9.30;99.90;;;;;;5093554;28;20668;-66
2022/03/14 02:47:14;;;;;;;10.90;10.00;;;9.20;99.90;;;;;;5112196;28;20211;-67
2022/03/14 02:49:40;;;;;;;14.70;13.50;;;9.20;99.90;;;;;;5111885;28;20187;-67
2022/03/14 02:52:06;;;;;;;13.37;12.27;;;9.10;99.90;;;;;;5112328;28;20640;-67
2022/03/14 02:54:32;;;;;;;13.03;11.83;;;9.10;99.90;;;;;;5111243;28;20184;-67
2022/03/14 02:56:57;;;;;;;11.90;10.70;;;9.10;99.90;;;;;;5093813;28;20180;-66
2022/03/14 02:59:23;;;;;;;13.60;12.53;;;9.10;99.90;;;;;;5111589;28;20184;-66
2022/03/14 03:01:49;;;;;;;11.87;10.87;;;9.10;99.90;;;;;;5112100;28;20192;-66
2022/03/14 03:04:14;;;;;;;15.07;13.87;;;9.10;99.90;;;;;;5111634;28;20181;-67
2022/03/14 03:06:40;;;;;;;13.30;12.10;;;9.10;99.90;;;;;;5092914;28;20207;-67
2022/03/14 03:09:06;;;;;;;17.60;16.30;;;9.10;99.90;;;;;;5112067;28;20169;-66
2022/03/14 03:11:32;;;;;;;16.37;15.03;;;9.10;99.90;;;;;;5111495;28;20204;-66
2022/03/14 03:13:59;;;;;;;13.20;12.00;;;9.10;99.90;;;;;;5112066;28;20200;-66
2022/03/14 03:16:25;;;;;;;11.77;10.87;;;9.10;99.90;;;;;;5110278;28;20183;-66
2022/03/14 03:18:51;;;;;;;13.83;12.70;;;9.10;99.90;;;;;;5112033;28;20550;-65
2022/03/14 03:21:17;;;;;;;14.50;13.10;;;9.00;99.90;;;;;;5111263;28;20212;-66
2022/03/14 03:23:42;;;;;;;32.53;30.40;;;9.00;99.90;;;;;;5111944;28;20195;-67
2022/03/14 03:26:08;;;;;;;11.87;10.80;;;9.00;99.90;;;;;;5092142;28;20190;-67
2022/03/14 03:28:37;;;;;;;14.23;13.03;;;9.10;99.90;;;;;;5111202;28;20172;-65
2022/03/14 03:31:04;;;;;;;13.03;12.07;;;9.00;99.90;;;;;;5111539;28;20197;-65
2022/03/14 03:33:29;;;;;;;14.53;13.03;;;9.10;99.90;;;;;;5111334;28;20215;-65
2022/03/14 03:35:55;;;;;;;13.40;12.30;;;9.00;99.90;;;;;;5111359;28;20180;-65
2022/03/14 03:38:20;;;;;;;12.43;11.33;;;9.00;99.90;;;;;;5110923;28;20259;-65
2022/03/14 03:40:46;;;;;;;14.27;12.97;;;9.00;99.90;;;;;;5111593;28;20196;-65
2022/03/14 03:43:11;;;;;;;16.20;14.90;;;9.00;99.90;;;;;;5111404;28;20245;-65
2022/03/14 03:45:37;;;;;;;14.80;13.60;;;9.00;99.90;;;;;;5093066;28;20203;-65
2022/03/14 03:48:03;;;;;;;13.77;12.53;;;9.00;99.90;;;;;;5093123;28;20197;-65
2022/03/14 03:50:28;;;;;;;13.60;12.30;;;9.00;99.90;;;;;;5092643;28;20197;-66
2022/03/14 03:52:54;;;;;;;13.20;12.00;;;9.00;99.90;;;;;;5092887;28;20188;-66
2022/03/14 03:55:19;;;;;;;14.87;13.47;;;9.00;99.90;;;;;;5111036;28;20275;-65
2022/03/14 03:57:45;;;;;;;16.77;15.07;;;9.00;99.90;;;;;;5111253;28;20667;-65
2022/03/14 04:00:12;;;;;;;15.53;14.20;;;9.00;99.90;;;;;;5111360;28;20216;-65
2022/03/14 04:02:39;;;;;;;15.10;13.03;;;9.00;99.90;;;;;;5110966;28;20184;-65
2022/03/14 04:05:06;;;;;;;14.47;13.27;;;9.00;99.90;;;;;;5110728;28;20177;-66
2022/03/14 04:07:34;;;;;;;14.17;12.87;;;8.90;99.90;;;;;;5093158;28;20633;-65
2022/03/14 04:09:59;;;;;;;15.23;13.67;;;9.00;99.90;;;;;;5092929;28;20601;-66
2022/03/14 04:12:26;;;;;;;13.33;12.03;;;8.90;99.90;;;;;;5111152;28;20169;-66
2022/03/14 04:14:58;;;;;;;13.67;12.43;;;9.00;99.90;;;;;;5110950;28;20196;-65
2022/03/14 04:17:29;;;;;;;14.57;13.17;;;9.00;99.90;;;;;;5111324;28;20173;-66
2022/03/14 04:19:56;;;;;;;13.70;12.43;;;9.00;99.90;;;;;;5092750;28;20258;-65
2022/03/14 04:22:21;;;;;;;14.40;12.87;;;9.10;99.90;;;;;;5111158;28;20198;-65
2022/03/14 04:24:47;;;;;;;13.03;11.83;;;9.10;99.90;;;;;;5092333;28;20181;-66
2022/03/14 04:27:13;;;;;;;12.03;11.00;;;9.10;99.90;;;;;;5112034;28;20201;-66
2022/03/14 04:29:39;;;;;;;13.47;12.23;;;9.20;99.90;;;;;;5114647;28;20255;-65
2022/03/14 04:32:05;;;;;;;16.67;15.13;;;9.20;99.90;;;;;;5114869;28;20632;-65
2022/03/14 04:34:32;;;;;;;15.23;13.97;;;9.30;99.90;;;;;;5114126;28;20276;-66
2022/03/14 04:36:58;;;;;;;16.57;14.97;;;9.30;99.90;;;;;;5114660;28;20176;-65
2022/03/14 04:39:23;;;;;;;16.83;15.63;;;9.30;99.90;;;;;;5114536;28;20180;-67
2022/03/14 04:41:49;;;;;;;19.70;18.10;;;9.30;99.90;;;;;;5112837;28;20212;-65
2022/03/14 04:44:16;;;;;;;19.03;17.63;;;9.30;99.90;;;;;;5114457;28;20632;-65
2022/03/14 04:46:42;;;;;;;20.80;19.33;;;9.30;99.90;;;;;;5113606;28;20641;-66
2022/03/14 04:49:08;;;;;;;11.80;10.63;;;9.30;99.90;;;;;;5114327;28;20209;-66
2022/03/14 04:51:36;;;;;;;12.67;11.57;;;9.10;99.90;;;;;;5113816;28;20239;-66
2022/03/14 04:54:02;;;;;;;12.53;11.33;;;9.00;99.90;;;;;;5112990;28;20544;-66
2022/03/14 04:56:27;;;;;;;12.20;11.20;;;9.00;99.90;;;;;;5113310;28;20188;-65
2022/03/14 04:58:53;;;;;;;11.70;10.60;;;9.00;99.90;;;;;;5113831;28;20257;-65
2022/03/14 05:01:23;;;;;;;12.10;11.10;;;9.00;99.90;;;;;;5113736;28;20593;-65
2022/03/14 05:03:52;;;;;;;11.73;10.80;;;9.00;99.90;;;;;;5113871;28;20255;-65
2022/03/14 05:06:18;;;;;;;11.87;10.97;;;8.90;99.90;;;;;;5112646;28;20552;-65
2022/03/14 05:08:44;;;;;;;11.77;10.77;;;8.90;99.90;;;;;;5112868;28;20177;-66
2022/03/14 05:11:11;;;;;;;13.33;12.23;;;8.80;99.90;;;;;;5113185;28;20196;-65
2022/03/14 05:13:37;;;;;;;14.13;13.10;;;8.80;99.90;;;;;;5113706;28;20169;-66
2022/03/14 05:16:03;;;;;;;13.30;12.10;;;8.80;99.90;;;;;;5094710;28;20181;-65
2022/03/14 05:18:28;;;;;;;14.27;13.20;;;8.80;99.90;;;;;;5113534;28;20771;-66
2022/03/14 05:20:54;;;;;;;12.83;11.73;;;8.80;99.90;;;;;;5113217;28;20192;-66
2022/03/14 05:23:20;;;;;;;12.27;11.27;;;8.80;99.90;;;;;;5094862;28;20169;-65
2022/03/14 05:25:46;;;;;;;11.67;10.63;;;8.80;99.90;;;;;;5112930;28;20226;-65
2022/03/14 05:28:11;;;;;;;10.60;9.70;;;8.80;99.90;;;;;;5112343;28;20212;-65
2022/03/14 05:30:37;;;;;;;11.90;11.10;;;8.70;99.90;;;;;;5112604;28;20203;-66
2022/03/14 05:33:03;;;;;;;11.93;11.03;;;8.70;99.90;;;;;;5113394;28;20184;-65
2022/03/14 05:35:28;;;;;;;11.23;10.27;;;8.70;99.90;;;;;;5094461;28;20271;-66
2022/03/14 05:37:54;;;;;;;12.03;11.13;;;8.60;99.90;;;;;;5092117;28;20174;-65
2022/03/14 05:40:20;;;;;;;10.73;9.83;;;8.60;99.90;;;;;;5092722;28;20205;-65
2022/03/14 05:42:47;;;;;;;11.60;10.70;;;8.60;99.90;;;;;;5112038;28;20181;-65
2022/03/14 05:45:14;;;;;;;13.20;10.37;;;8.60;99.90;;;;;;5094146;28;20180;-66
2022/03/14 05:47:40;;;;;;;12.30;11.20;;;8.60;99.90;;;;;;5112737;28;20211;-65
2022/03/14 05:50:06;;;;;;;15.63;14.73;;;8.60;99.90;;;;;;5094751;28;20272;-65
2022/03/14 05:52:32;;;;;;;17.00;15.80;;;8.70;99.90;;;;;;5112391;28;20208;-65
2022/03/14 05:54:57;;;;;;;16.20;15.20;;;8.70;99.90;;;;;;5094229;28;20195;-67
2022/03/14 05:57:23;;;;;;;17.10;16.00;;;8.70;99.90;;;;;;5112547;28;20322;-66
2022/03/14 05:59:49;;;;;;;16.90;15.50;;;8.70;99.90;;;;;;5112864;28;20209;-65
2022/03/14 06:02:21;;;;;;;17.53;15.93;;;8.80;99.90;;;;;;5094086;28;20338;-65
2022/03/14 06:04:52;;;;;;;16.90;15.60;;;8.70;99.90;;;;;;5094309;28;20177;-67
2022/03/14 06:07:22;;;;;;;12.20;11.00;;;8.70;99.90;;;;;;5093745;28;20716;-66
2022/03/14 06:09:48;;;;;;;14.77;13.40;;;8.70;99.90;;;;;;5094715;28;20169;-66
2022/03/14 06:12:29;;;;;;;12.07;10.97;;;8.70;99.90;;;;;;5112769;28;20635;-66
2022/03/14 06:14:57;;;;;;;12.57;11.33;;;8.70;99.90;;;;;;5091637;28;20169;-66
2022/03/14 06:17:22;;;;;;;20.40;17.57;;;8.70;99.90;;;;;;5103883;28;20195;-66
2022/03/14 06:19:49;;;;;;;14.37;9.97;;;8.70;99.90;;;;;;5112668;28;20173;-65
2022/03/14 06:22:19;;;;;;;12.53;11.23;;;8.70;99.90;;;;;;5112134;28;20674;-66
2022/03/14 06:24:47;;;;;;;11.17;10.37;;;8.60;99.90;;;;;;5111939;28;20173;-66
2022/03/14 06:27:14;;;;;;;12.33;11.10;;;8.60;99.90;;;;;;5111913;28;20257;-65
2022/03/14 06:29:40;;;;;;;11.77;10.67;;;8.60;99.90;;;;;;5112524;28;20173;-66
2022/03/14 06:32:06;;;;;;;11.90;10.90;;;8.60;99.90;;;;;;5112092;28;20176;-66
2022/03/14 06:34:31;;;;;;;11.20;10.23;;;8.60;99.90;;;;;;5093390;28;20215;-66
2022/03/14 06:36:57;;;;;;;11.97;10.87;;;8.60;99.90;;;;;;5112201;28;20215;-66
2022/03/14 06:39:22;;;;;;;11.10;10.20;;;8.60;99.90;;;;;;5111609;28;20581;-66
2022/03/14 06:41:48;;;;;;;11.37;10.27;;;8.70;99.90;;;;;;5111566;28;20215;-66
2022/03/14 06:44:14;;;;;;;14.10;12.33;;;8.70;99.90;;;;;;5111933;28;20500;-67
2022/03/14 06:46:40;;;;;;;13.87;12.47;;;8.70;99.90;;;;;;5111105;28;20204;-66
2022/03/14 06:49:06;;;;;;;12.47;11.37;;;8.70;99.90;;;;;;5111862;28;20169;-66
2022/03/14 06:51:32;;;;;;;14.10;12.60;;;8.80;99.90;;;;;;5110569;28;20219;-66
2022/03/14 06:53:58;;;;;;;13.97;12.57;;;8.70;99.90;;;;;;5093632;28;20177;-66
2022/03/14 06:56:24;;;;;;;14.50;13.10;;;8.80;99.90;;;;;;5110846;28;20191;-65
2022/03/14 06:58:50;;;;;;;14.60;13.40;;;8.80;99.90;;;;;;5111374;28;20269;-67
2022/03/14 07:01:15;;;;;;;11.73;10.63;;;8.80;99.90;;;;;;5113536;27;20342;-66
2022/03/14 07:06:09;;;;;;;15.77;14.77;;;8.80;99.90;;;;;;5129242;27;20595;-67
2022/03/14 07:08:34;;;;;;;16.60;11.67;;;8.80;99.90;;;;;;5132706;27;20172;-66
2022/03/14 07:11:00;;;;;;;12.20;10.97;;;8.80;99.90;;;;;;5132371;27;20597;-65
2022/03/14 07:13:26;;;;;;;9.90;9.07;;;8.80;99.90;;;;;;5132479;27;20168;-68
2022/03/14 07:15:51;;;;;;;10.77;9.63;;;8.90;99.90;;;;;;5150842;27;20256;-65
2022/03/14 07:18:17;;;;;;;11.30;10.30;;;8.90;99.90;;;;;;5153374;27;20216;-66
2022/03/14 07:20:43;;;;;;;11.13;9.80;;;8.90;99.90;;;;;;5152496;27;20265;-66
2022/03/14 07:23:08;;;;;;;16.80;13.20;;;8.90;99.90;;;;;;5153505;27;20587;-67
2022/03/14 07:25:37;;;;;;;14.37;11.97;;;8.90;99.90;;;;;;5139469;27;20670;-66
2022/03/14 07:28:06;;;;;;;15.53;12.30;;;9.00;99.90;;;;;;5132289;27;20219;-66
2022/03/14 07:30:31;;;;;;;11.10;10.03;;;9.10;99.90;;;;;;5142553;27;20174;-66
2022/03/14 07:32:57;;;;;;;11.63;10.57;;;9.20;99.90;;;;;;5153007;27;20160;-66
2022/03/14 07:35:25;;;;;;;19.93;14.67;;;9.20;99.90;;;;;;5141889;27;20195;-67
2022/03/14 07:37:52;;;;;;;26.93;17.00;;;9.30;99.90;;;;;;5133243;27;20278;-67
2022/03/14 07:40:18;;;;;;;20.20;15.03;;;9.30;99.90;;;;;;5152639;27;20171;-66
2022/03/14 07:42:48;;;;;;;11.43;10.27;;;9.40;99.90;;;;;;5152524;27;20175;-67
2022/03/14 07:45:16;;;;;;;13.87;11.60;;;9.50;99.90;;;;;;5152201;27;20386;-66
2022/03/14 07:47:43;;;;;;;11.63;8.77;;;9.60;99.90;;;;;;5152751;27;20223;-67
2022/03/14 07:50:10;;;;;;;12.00;10.17;;;9.70;99.90;;;;;;5152616;27;20233;-65
2022/03/14 07:52:36;;;;;;;11.23;9.13;;;9.70;99.90;;;;;;5152976;27;20673;-66
2022/03/14 07:55:03;;;;;;;10.57;8.20;;;9.90;99.90;;;;;;5151929;27;20553;-66
2022/03/14 07:57:31;;;;;;;8.97;8.07;;;9.90;99.90;;;;;;5152663;27;20168;-66
2022/03/14 07:59:57;;;;;;;8.97;8.07;;;9.90;99.90;;;;;;5152853;27;20285;-65
2022/03/14 08:02:23;;;;;;;8.90;8.20;;;10.00;99.90;;;;;;5155326;27;20255;-66
2022/03/14 08:04:48;;;;;;;8.90;8.10;;;10.10;99.90;;;;;;5156177;27;20217;-65
2022/03/14 08:07:14;;;;;;;8.07;7.37;;;10.20;99.90;;;;;;5156539;27;20586;-67
2022/03/14 08:09:40;;;;;;;8.80;7.90;;;10.30;99.90;;;;;;5156363;27;20171;-64
2022/03/14 08:12:06;;;;;;;7.73;7.07;;;10.40;99.90;;;;;;5156663;27;20208;-66
2022/03/14 08:14:32;;;;;;;8.53;7.60;;;10.40;99.90;;;;;;5156391;27;20221;-66
2022/03/14 08:16:58;;;;;;;9.77;8.17;;;10.50;99.90;;;;;;5156625;27;20175;-67
2022/03/14 08:19:23;;;;;;;9.60;8.70;;;10.60;99.90;;;;;;5156168;27;20227;-67
2022/03/14 08:21:51;;;;;;;8.40;7.80;;;10.70;99.90;;;;;;5156672;27;20246;-65
2022/03/14 08:24:17;;;;;;;7.83;7.03;;;10.70;99.90;;;;;;5156093;27;20203;-67
2022/03/14 08:26:44;;;;;;;8.10;7.50;;;10.80;99.90;;;;;;5156042;27;20199;-65
2022/03/14 08:29:10;;;;;;;11.27;9.83;;;10.90;99.90;;;;;;5156398;27;20167;-66
2022/03/14 08:31:36;;;;;;;8.37;7.73;;;11.00;99.90;;;;;;5156311;27;20199;-66
2022/03/14 08:34:02;;;;;;;8.03;7.27;;;11.00;99.90;;;;;;5156128;27;20222;-67
2022/03/14 08:36:28;;;;;;;9.67;7.93;;;11.20;99.90;;;;;;5155405;27;20180;-66
2022/03/14 08:38:54;;;;;;;9.37;7.43;;;11.30;99.90;;;;;;5155849;27;20216;-65
2022/03/14 08:41:20;;;;;;;7.20;6.63;;;11.40;99.90;;;;;;5155448;27;20195;-65
2022/03/14 08:43:46;;;;;;;8.10;7.40;;;11.30;99.90;;;;;;5154926;27;20214;-66
2022/03/14 08:46:14;;;;;;;7.43;6.63;;;11.30;99.90;;;;;;5163540;27;20200;-65
2022/03/14 08:48:40;;;;;;;7.13;6.50;;;11.20;99.90;;;;;;5167883;27;20622;-66
2022/03/14 08:51:06;;;;;;;7.83;7.20;;;11.20;99.90;;;;;;5165198;27;20172;-65
2022/03/14 08:53:32;;;;;;;7.80;7.10;;;11.20;99.90;;;;;;5158684;27;20215;-66
2022/03/14 08:56:00;;;;;;;7.70;6.80;;;11.20;99.90;;;;;;5155881;27;20191;-66
2022/03/14 08:58:26;;;;;;;7.83;7.20;;;11.30;99.90;;;;;;5155630;27;20179;-66
2022/03/14 09:00:52;;;;;;;8.00;7.30;;;11.20;99.90;;;;;;5155738;27;20630;-66
2022/03/14 09:03:17;;;;;;;7.73;7.13;;;11.10;99.90;;;;;;5155714;27;20172;-66
2022/03/14 09:05:43;;;;;;;8.20;7.40;;;11.20;99.90;;;;;;5155413;27;20226;-66
2022/03/14 09:08:08;;;;;;;7.60;7.00;;;11.30;99.90;;;;;;5155221;27;20331;-66
2022/03/14 09:10:36;;;;;;;8.93;8.20;;;11.30;99.90;;;;;;5155631;27;20174;-66
2022/03/14 09:13:03;;;;;;;7.70;7.10;;;11.50;99.90;;;;;;5154024;27;20622;-67
2022/03/14 09:15:30;;;;;;;9.63;8.73;;;11.50;99.90;;;;;;5155117;27;20179;-68
2022/03/14 09:17:59;;;;;;;9.17;8.23;;;11.50;99.90;;;;;;5154902;27;20557;-67
2022/03/14 09:20:26;;;;;;;8.53;7.67;;;11.60;99.90;;;;;;5155072;27;20499;-67
2022/03/14 09:22:53;;;;;;;8.17;7.37;;;11.50;99.90;;;;;;5154592;27;20181;-67
2022/03/14 09:25:20;;;;;;;7.80;7.20;;;11.60;99.90;;;;;;5154005;27;20634;-67
2022/03/14 09:27:47;;;;;;;8.13;7.50;;;11.70;99.90;;;;;;5154695;27;20453;-68
2022/03/14 09:30:14;;;;;;;7.07;6.67;;;11.70;99.90;;;;;;5154852;27;20179;-67
2022/03/14 09:32:41;;;;;;;8.20;7.70;;;11.80;99.90;;;;;;5155258;27;20185;-67
2022/03/14 09:35:08;;;;;;;7.40;6.90;;;12.00;99.90;;;;;;5154731;27;20218;-68
2022/03/14 09:37:35;;;;;;;7.33;6.83;;;12.10;99.90;;;;;;5153534;27;20547;-68
2022/03/14 09:40:05;;;;;;;7.27;6.77;;;12.00;99.90;;;;;;5155065;27;20176;-66
2022/03/14 09:42:34;;;;;;;8.07;7.57;;;12.00;99.90;;;;;;5154793;27;20245;-65
2022/03/14 09:45:01;;;;;;;7.20;6.60;;;12.00;99.90;;;;;;5154536;27;20302;-66
2022/03/14 09:47:28;;;;;;;8.27;7.43;;;12.10;99.90;;;;;;5154763;27;20233;-65
2022/03/14 09:49:55;;;;;;;8.00;7.40;;;12.10;99.90;;;;;;5154683;27;20171;-67
2022/03/14 09:52:22;;;;;;;8.13;7.53;;;12.20;99.90;;;;;;5155090;27;20167;-67
2022/03/14 09:54:49;;;;;;;7.23;6.70;;;12.30;99.90;;;;;;5154467;27;20787;-67
2022/03/14 09:57:15;;;;;;;6.90;6.50;;;12.40;99.90;;;;;;5153589;27;20211;-67
2022/03/14 09:59:42;;;;;;;7.43;6.80;;;12.60;99.90;;;;;;5154182;27;20587;-67
2022/03/14 10:02:12;;;;;;;7.10;6.60;;;13.00;99.90;;;;;;5154090;27;20241;-66
2022/03/14 10:04:38;;;;;;;7.57;6.87;;;13.60;99.90;;;;;;5153849;27;20207;-65
2022/03/14 10:07:06;;;;;;;6.77;6.13;;;14.00;99.90;;;;;;5154561;27;20754;-65
2022/03/14 10:09:34;;;;;;;6.47;5.97;;;14.20;99.90;;;;;;5153768;27;20175;-65
2022/03/14 10:12:00;;;;;;;6.20;5.80;;;14.70;99.90;;;;;;5154655;27;20246;-68
2022/03/14 10:14:25;;;;;;;7.27;6.67;;;15.10;99.90;;;;;;5153873;27;20251;-66
2022/03/14 10:16:56;;;;;;;6.83;6.23;;;15.20;99.90;;;;;;5153876;27;20261;-66
2022/03/14 10:19:34;;;;;;;6.27;5.83;;;15.30;99.90;;;;;;5154003;27;20206;-67
2022/03/14 10:22:18;;;;;;;6.90;6.50;;;15.40;99.90;;;;;;5154465;27;20164;-68
2022/03/14 10:24:46;;;;;;;6.20;5.80;;;15.60;99.90;;;;;;5153384;27;20191;-68
2022/03/14 10:27:16;;;;;;;6.40;5.90;;;15.70;99.90;;;;;;5153146;27;20678;-66
2022/03/14 10:29:42;;;;;;;6.80;6.30;;;15.30;99.90;;;;;;5154322;27;20168;-67
2022/03/14 10:32:30;;;;;;;7.07;6.37;;;14.80;99.90;;;;;;5154372;27;20167;-67
2022/03/14 10:34:58;;;;;;;7.00;6.40;;;14.40;99.90;;;;;;5154075;27;20642;-66
2022/03/14 10:37:28;;;;;;;6.80;6.33;;;14.10;99.90;;;;;;5154110;27;20180;-67
2022/03/14 10:39:59;;;;;;;6.30;5.80;;;14.10;99.90;;;;;;5153945;27;20250;-66
2022/03/14 10:42:25;;;;;;;6.43;5.83;;;14.90;99.90;;;;;;5153378;27;20211;-63
2022/03/14 10:44:52;;;;;;;5.87;5.47;;;15.60;99.90;;;;;;5153532;27;20573;-64
2022/03/14 10:47:19;;;;;;;6.37;5.93;;;16.20;99.90;;;;;;5153188;27;20620;-65
2022/03/14 10:49:46;;;;;;;6.03;5.43;;;16.90;99.90;;;;;;5132899;27;20632;-64
2022/03/14 10:52:14;;;;;;;6.43;5.83;;;16.80;99.90;;;;;;5136695;27;20189;-65
2022/03/14 10:54:41;;;;;;;6.93;6.43;;;16.20;99.90;;;;;;5152973;27;20710;-65
2022/03/14 10:57:14;;;;;;;6.57;6.17;;;15.70;99.90;;;;;;5152495;27;20218;-66
2022/03/14 10:59:44;;;;;;;6.90;6.40;;;14.70;99.90;;;;;;5154098;27;20383;-66
2022/03/14 11:02:12;;;;;;;7.30;6.80;;;14.40;99.90;;;;;;5153589;27;20195;-65
2022/03/14 11:04:59;;;;;;;7.93;7.43;;;14.00;99.90;;;;;;5152784;27;20525;-66
2022/03/14 11:07:32;;;;;;;8.03;7.23;;;13.70;99.90;;;;;;5153873;27;20191;-66
2022/03/14 11:10:00;;;;;;;8.57;6.93;;;13.50;99.90;;;;;;5152231;27;20164;-67
2022/03/14 11:12:28;;;;;;;7.60;6.90;;;13.40;99.90;;;;;;5153891;27;20182;-66
2022/03/14 11:14:55;;;;;;;7.47;6.77;;;13.50;99.90;;;;;;5153792;27;20240;-66
2022/03/14 11:17:26;;;;;;;7.20;6.60;;;13.50;99.90;;;;;;5153532;27;20197;-65
2022/03/14 11:19:52;;;;;;;7.03;6.53;;;13.70;99.90;;;;;;5154119;27;20254;-65
2022/03/14 11:22:21;;;;;;;7.47;6.77;;;14.00;99.90;;;;;;5153256;27;20175;-65
2022/03/14 11:24:49;;;;;;;7.03;6.53;;;14.20;99.90;;;;;;5152576;27;20633;-65
2022/03/14 11:27:19;;;;;;;7.33;6.83;;;14.50;99.90;;;;;;5153244;27;20196;-66
2022/03/14 11:29:47;;;;;;;7.07;6.47;;;14.90;99.90;;;;;;5153053;27;20697;-66
2022/03/14 11:32:15;;;;;;;6.70;6.20;;;14.90;99.90;;;;;;5153232;27;20244;-65
2022/03/14 11:34:41;;;;;;;6.67;6.27;;;14.90;99.90;;;;;;5153214;27;20183;-66
2022/03/14 11:37:07;;;;;;;6.50;6.10;;;14.70;99.90;;;;;;5155335;27;20256;-65
2022/03/14 11:39:35;;;;;;;7.20;6.60;;;14.40;99.90;;;;;;5157337;27;20258;-65
2022/03/14 11:42:00;;;;;;;5.87;5.50;;;14.20;99.90;;;;;;5157301;27;20249;-64
2022/03/14 11:44:27;;;;;;;6.13;5.70;;;14.10;99.90;;;;;;5156411;27;20195;-66
2022/03/14 11:46:54;;;;;;;6.17;5.60;;;14.00;99.90;;;;;;5157205;27;20191;-66
2022/03/14 11:49:20;;;;;;;5.87;5.47;;;14.10;99.90;;;;;;5155373;27;20175;-65
2022/03/14 11:51:47;;;;;;;6.37;5.87;;;13.80;99.90;;;;;;5157296;27;20264;-66
2022/03/14 11:54:14;;;;;;;6.67;6.23;;;13.60;99.90;;;;;;5156875;27;20184;-65
2022/03/14 11:57:00;;;;;;;6.90;5.83;;;13.30;99.90;;;;;;5156356;27;20686;-66
2022/03/14 11:59:27;;;;;;;6.37;5.97;;;13.20;99.90;;;;;;5157111;27;20171;-67
2022/03/14 12:01:55;;;;;;;6.30;5.90;;;13.20;99.90;;;;;;5147834;27;20244;-66
2022/03/14 12:04:27;;;;;;;5.90;5.40;;;13.30;99.90;;;;;;5155067;27;20203;-67
2022/03/14 12:06:54;;;;;;;6.20;5.80;;;13.40;99.90;;;;;;5156659;27;20195;-65
2022/03/14 12:09:26;;;;;;;6.27;5.77;;;13.40;99.90;;;;;;5156166;27;20164;-67
2022/03/14 12:12:15;;;;;;;7.23;6.83;;;13.50;99.90;;;;;;5156497;27;20171;-66
2022/03/14 12:14:46;;;;;;;6.20;5.70;;;13.40;99.90;;;;;;5156688;27;20184;-66
2022/03/14 12:17:15;;;;;;;7.30;6.80;;;13.20;99.90;;;;;;5159028;27;20204;-65
2022/03/14 12:19:42;;;;;;;6.83;6.40;;;13.20;99.90;;;;;;5160125;27;20192;-67
2022/03/14 12:22:12;;;;;;;8.30;6.80;;;13.00;99.90;;;;;;5157389;27;20573;-66
2022/03/14 12:24:38;;;;;;;7.27;6.80;;;12.90;99.90;;;;;;5157214;27;20210;-66
2022/03/14 12:27:15;;;;;;;7.30;6.80;;;13.00;99.90;;;;;;5148845;27;20200;-66
2022/03/14 12:29:41;;;;;;;7.10;6.70;;;12.90;99.90;;;;;;5151472;27;20199;-67
2022/03/14 12:32:35;;;;;;;6.40;6.10;;;13.00;99.90;;;;;;5156235;27;20267;-67
2022/03/14 12:35:12;;;;;;;6.90;6.40;;;13.00;99.90;;;;;;5156301;27;20183;-66
2022/03/14 12:37:44;;;;;;;7.20;6.67;;;13.10;99.90;;;;;;5156008;27;20214;-68
2022/03/14 12:40:34;;;;;;;7.40;6.67;;;13.00;99.90;;;;;;5156054;27;20187;-66
2022/03/14 12:43:27;;;;;;;6.53;6.13;;;13.00;99.90;;;;;;5135178;27;20179;-66
2022/03/14 12:45:58;;;;;;;7.60;6.90;;;13.10;99.90;;;;;;5153272;27;20229;-65